Pringle, SD

5:48 PM MST on December 22, 2014 (GMT -0700)
Custer County | Change Station
CLOSE
Current Station
Airport
Location: Custer,
Elevation: 5600 ft
Nearby Weather Stations

Elev 5600 ft 43.73 °N, 103.62 °W | Updated 55 minutes ago

Overcast
Overcast
28 °F
Feels Like 16 °F
N
16
Wind Variable Wind from NW
Gusts 29 mph

Today
High -- | Low -- °F
--% Chance of Precip.
Yesterday
High -- | Low -- °F
Precip. -- in
7:25 AM 4:21 PM
New Moon, 1% visible
Pressure 29.60 in
Visibility 10.0 miles
Clouds Mostly Cloudy 3100 ft
Windchill 16 °F
Dew Point 18 °F
Humidity 66%
Rainfall 0.00 in
Snow Depth Not available.
UV 0 out of 12
Pollen .10 out of 12
Air Quality Not available.
Flu Activity Not available.
METAR KCUT 222353Z AUTO 32014G25KT 10SM BKN031 M02/M08 A2953 RMK AO2 PK WND 33036/2257 SNE2256B16E32 SLP023 6//// T10221078 10000 21028 53007 $

More Conditions Fewer Conditions

Pressure 29.60 in
Visibility 10.0 miles
Clouds Mostly Cloudy 3100 ft
Windchill 16 °F
Dew Point 18 °F
Humidity 66%
Rainfall 0.00 in
Snow Depth Not available.
UV 0 out of 12
Pollen .10 out of 12
Air Quality Not available.
Flu Activity Not available.
METAR KCUT 222353Z AUTO 32014G25KT 10SM BKN031 M02/M08 A2953 RMK AO2 PK WND 33036/2257 SNE2256B16E32 SLP023 6//// T10221078 10000 21028 53007 $

More Conditions Fewer Conditions

10-Day Weather Forecast

Almanac

Astronomy

Dec. 22, 2014 Rise Set
Actual Time
Civil Twilight
Nautical Twilight
Astronomical Twilight
Moon
Length of Visible Light
Length of Day
Tomorrow will be .
, % of the Moon is Illuminated

Today's Extremes

State Highs State Lows

Community

WunderPhotos

Upload Photos

1,779,740 photos uploaded!

WunderBlogs® & News

Nearby

Air Quality

  Air Quality AQ Index Pollutant
Not available.

Snow Depth

Station Depth Elevation

Earthquake Activity

City Distance Mag. Time & Date
Minimum magnitude displayed is 2.5.

Coastal Water Temperatures

Place Temperature

Nearby Weather Stations